Time;durP1;ratioP1;P1;durP2;ratioP2;P2;SDS_P1;SDS_P2;PMS_P1;PMS_P2;Temp;Humidity;BMP_temperature;BMP_pressure;BME280_temperature;BME280_humidity;BME280_pressure;Samples;Min_cycle;Max_cycle;Signal;HPM_P1;HPM_P2
2023/03/25 00:00:13;;;;;;;4.60;0.97;;;10.50;99.90;;;;;;7289154;19;20213;-80
2023/03/25 00:02:39;;;;;;;5.37;1.00;;;10.40;99.90;;;;;;7289903;19;20723;-79
2023/03/25 00:05:05;;;;;;;4.57;1.13;;;10.40;99.90;;;;;;7290363;19;20192;-80
2023/03/25 00:07:32;;;;;;;5.77;1.30;;;10.40;99.90;;;;;;7290433;19;20199;-79
2023/03/25 00:09:58;;;;;;;5.80;1.50;;;10.50;99.90;;;;;;7290061;19;20192;-79
2023/03/25 00:12:23;;;;;;;8.13;1.20;;;10.50;99.90;;;;;;7290417;19;20204;-79
2023/03/25 00:14:57;;;;;;;5.50;0.93;;;10.50;99.90;;;;;;7290886;19;20196;-79
2023/03/25 00:17:30;;;;;;;7.37;1.20;;;10.40;99.90;;;;;;7289476;19;20196;-80
2023/03/25 00:19:56;;;;;;;9.40;1.30;;;10.50;99.90;;;;;;7288059;19;20704;-80
2023/03/25 00:22:22;;;;;;;6.33;1.43;;;10.50;99.90;;;;;;7290762;19;20200;-80
2023/03/25 00:24:48;;;;;;;7.90;1.27;;;10.50;99.90;;;;;;7289256;19;20190;-79
2023/03/25 00:27:18;;;;;;;6.53;1.47;;;10.60;99.90;;;;;;7310684;19;20260;-80
2023/03/25 00:29:45;;;;;;;8.53;1.30;;;10.60;99.90;;;;;;7289593;19;20609;-79
2023/03/25 00:32:12;;;;;;;7.67;1.20;;;10.60;99.90;;;;;;7289532;19;20181;-80
2023/03/25 00:34:46;;;;;;;8.07;1.40;;;10.50;99.90;;;;;;7290575;19;20196;-79
2023/03/25 00:37:16;;;;;;;8.70;1.50;;;10.50;99.90;;;;;;7289766;19;20199;-79
2023/03/25 00:39:43;;;;;;;8.37;1.63;;;10.40;99.90;;;;;;7287511;19;20202;-80
2023/03/25 00:42:12;;;;;;;4.70;1.23;;;10.50;99.90;;;;;;7288840;19;20184;-80
2023/03/25 00:44:38;;;;;;;7.47;1.40;;;10.50;99.90;;;;;;7287669;19;20323;-79
2023/03/25 00:47:04;;;;;;;6.70;1.30;;;10.50;99.90;;;;;;7286523;19;20565;-79
2023/03/25 00:49:30;;;;;;;3.83;1.10;;;10.60;99.90;;;;;;7287674;19;20259;-81
2023/03/25 00:51:56;;;;;;;8.13;1.40;;;10.70;99.90;;;;;;7287649;19;20191;-81
2023/03/25 00:54:22;;;;;;;5.53;1.27;;;10.70;99.90;;;;;;7285978;19;20222;-78
2023/03/25 00:56:49;;;;;;;8.03;1.30;;;10.70;99.90;;;;;;7292180;19;20196;-81
2023/03/25 00:59:15;;;;;;;7.60;1.47;;;10.60;99.90;;;;;;7308725;19;20193;-80
2023/03/25 01:01:42;;;;;;;8.13;1.70;;;10.50;99.90;;;;;;7287370;19;20608;-80
2023/03/25 01:04:15;;;;;;;7.83;1.50;;;10.40;99.90;;;;;;7286578;19;20193;-80
2023/03/25 01:06:42;;;;;;;7.40;1.30;;;10.40;99.90;;;;;;7287841;19;20608;-80
2023/03/25 01:09:12;;;;;;;7.00;1.30;;;10.40;99.90;;;;;;7287818;19;21628;-80
2023/03/25 01:11:39;;;;;;;6.57;1.40;;;10.50;99.90;;;;;;7287995;19;20185;-80
2023/03/25 01:14:08;;;;;;;7.60;1.50;;;10.50;99.90;;;;;;7288815;19;20302;-80
2023/03/25 01:16:34;;;;;;;9.90;1.30;;;10.60;99.90;;;;;;7287213;19;20192;-79
2023/03/25 01:19:00;;;;;;;7.60;1.40;;;10.70;99.90;;;;;;7288927;19;20197;-80
2023/03/25 01:21:25;;;;;;;7.80;1.33;;;10.60;99.90;;;;;;7288318;19;20183;-80
2023/03/25 01:23:51;;;;;;;8.40;1.77;;;10.50;99.90;;;;;;7288053;19;20197;-80
2023/03/25 01:26:17;;;;;;;7.43;1.20;;;10.50;99.90;;;;;;7302135;19;20226;-79
2023/03/25 01:28:43;;;;;;;7.27;1.67;;;10.30;99.90;;;;;;7303590;19;20199;-81
2023/03/25 01:31:11;;;;;;;11.17;1.70;;;10.30;99.90;;;;;;7287002;19;20692;-79
2023/03/25 01:33:38;;;;;;;8.53;1.40;;;10.40;99.90;;;;;;7287650;19;20186;-79
2023/03/25 01:36:08;;;;;;;7.57;1.40;;;10.30;99.90;;;;;;7287164;19;20204;-79
2023/03/25 01:38:38;;;;;;;7.30;1.43;;;10.30;99.90;;;;;;7286879;19;20217;-79
2023/03/25 01:41:05;;;;;;;9.77;1.70;;;10.40;99.90;;;;;;7288993;19;20735;-79
2023/03/25 01:43:32;;;;;;;9.67;1.80;;;10.30;99.90;;;;;;7287429;19;20237;-79
2023/03/25 01:45:58;;;;;;;9.40;1.43;;;10.40;99.90;;;;;;7286772;19;20204;-79
2023/03/25 01:48:34;;;;;;;10.90;1.70;;;10.40;99.90;;;;;;7287557;19;20204;-79
2023/03/25 01:51:20;;;;;;;6.83;1.17;;;10.40;99.90;;;;;;7287217;19;20203;-78
2023/03/25 01:53:47;;;;;;;8.80;1.30;;;10.40;99.90;;;;;;7287937;19;20189;-79
2023/03/25 01:56:16;;;;;;;11.67;1.50;;;10.40;99.90;;;;;;7288441;19;20200;-79
2023/03/25 01:58:43;;;;;;;7.03;1.17;;;10.40;99.90;;;;;;7285296;19;20188;-79
2023/03/25 02:01:12;;;;;;;8.73;1.60;;;10.30;99.90;;;;;;7287406;19;20288;-79
2023/03/25 02:03:44;;;;;;;10.30;1.20;;;10.20;99.90;;;;;;7287604;19;20219;-80
2023/03/25 02:06:21;;;;;;;9.20;1.13;;;10.20;99.90;;;;;;7286027;19;20260;-79
2023/03/25 02:08:49;;;;;;;8.13;1.47;;;10.20;99.90;;;;;;7290386;19;20187;-78
2023/03/25 02:11:15;;;;;;;5.83;1.20;;;10.20;99.90;;;;;;7308556;19;20194;-81
2023/03/25 02:13:41;;;;;;;8.30;1.30;;;10.20;99.90;;;;;;7285730;19;20665;-79
2023/03/25 02:16:29;;;;;;;11.97;1.53;;;10.20;99.90;;;;;;7287080;19;20246;-79
2023/03/25 02:19:11;;;;;;;8.10;1.30;;;10.10;99.90;;;;;;7183759;19;2004614;-79
2023/03/25 02:21:58;;;;;;;6.27;1.03;;;10.10;99.90;;;;;;7285040;19;20205;-79
2023/03/25 02:25:06;;;;;;;12.20;1.70;;;10.10;99.90;;;;;;7184447;19;2005223;-79
2023/03/25 02:27:54;;;;;;;12.03;1.43;;;10.10;99.90;;;;;;7184344;19;2004417;-79
2023/03/25 02:30:35;;;;;;;9.30;1.20;;;10.10;99.90;;;;;;7265189;19;20194;-79
2023/03/25 02:33:16;;;;;;;9.77;1.20;;;10.00;99.90;;;;;;7285692;19;20211;-79
2023/03/25 02:36:00;;;;;;;7.50;1.30;;;9.90;99.90;;;;;;7287720;19;20197;-80
2023/03/25 02:38:48;;;;;;;7.67;1.30;;;10.00;99.90;;;;;;7183536;19;2004420;-79
2023/03/25 02:41:41;;;;;;;7.57;1.23;;;10.00;99.90;;;;;;7285880;19;20184;-79
2023/03/25 02:44:12;;;;;;;10.97;1.50;;;10.00;99.90;;;;;;7183201;19;2004867;-79
2023/03/25 02:46:44;;;;;;;5.10;1.37;;;9.90;99.90;;;;;;7284010;19;20203;-79
2023/03/25 02:49:18;;;;;;;9.97;1.40;;;9.90;99.90;;;;;;7285464;19;20198;-79
2023/03/25 02:51:57;;;;;;;12.43;1.90;;;9.90;99.90;;;;;;7285479;19;20223;-79
2023/03/25 02:54:26;;;;;;;12.23;1.90;;;9.90;99.90;;;;;;7181379;19;2004431;-79
2023/03/25 02:56:56;;;;;;;9.07;1.47;;;9.90;99.90;;;;;;7285281;19;20297;-79
2023/03/25 02:59:28;;;;;;;10.13;1.37;;;9.90;99.90;;;;;;7286288;19;20548;-78
2023/03/25 03:02:02;;;;;;;8.53;1.20;;;10.10;99.90;;;;;;7284831;19;20758;-78
2023/03/25 03:04:28;;;;;;;9.50;1.30;;;10.10;99.90;;;;;;7283928;19;20286;-79
2023/03/25 03:06:55;;;;;;;9.13;1.27;;;10.20;99.90;;;;;;7283692;19;20180;-78
2023/03/25 03:09:42;;;;;;;8.63;1.50;;;10.20;99.90;;;;;;7285528;19;20213;-79
2023/03/25 03:12:22;;;;;;;7.93;1.20;;;10.20;99.90;;;;;;7283189;19;20635;-79
2023/03/25 03:14:50;;;;;;;12.53;1.87;;;10.10;99.90;;;;;;7274214;19;20260;-79
2023/03/25 03:17:37;;;;;;;15.10;1.83;;;10.00;99.90;;;;;;7307598;19;20206;-79
2023/03/25 03:20:16;;;;;;;11.70;1.60;;;10.10;99.90;;;;;;7183178;19;2005781;-79
2023/03/25 03:22:51;;;;;;;14.43;1.90;;;10.10;99.90;;;;;;7286235;19;20194;-79
2023/03/25 03:25:34;;;;;;;15.13;1.83;;;10.00;99.90;;;;;;7285285;19;20696;-75
2023/03/25 03:28:08;;;;;;;13.07;2.03;;;10.00;99.90;;;;;;7284627;19;20656;-79
2023/03/25 03:30:48;;;;;;;8.47;1.40;;;10.00;99.90;;;;;;7285601;19;20337;-79
2023/03/25 03:33:39;;;;;;;12.87;1.70;;;9.90;99.90;;;;;;7286607;19;20184;-80
2023/03/25 03:36:12;;;;;;;18.23;1.97;;;9.70;99.90;;;;;;7180482;19;2004590;-80
2023/03/25 03:38:53;;;;;;;10.07;1.47;;;9.70;99.90;;;;;;7285478;19;20663;-80
2023/03/25 03:41:22;;;;;;;13.47;2.03;;;9.60;99.90;;;;;;7263762;19;20183;-79
2023/03/25 03:43:53;;;;;;;10.60;1.73;;;9.60;99.90;;;;;;7292380;19;20623;-79
2023/03/25 03:46:45;;;;;;;13.27;1.53;;;9.70;99.90;;;;;;7289711;19;20186;-79
2023/03/25 03:49:19;;;;;;;16.23;2.00;;;9.80;99.90;;;;;;7283839;19;20192;-80
2023/03/25 03:51:52;;;;;;;14.20;2.17;;;9.80;99.90;;;;;;7283853;19;20258;-80
2023/03/25 03:54:24;;;;;;;14.57;1.80;;;9.90;99.90;;;;;;7272572;19;20205;-79
2023/03/25 03:56:53;;;;;;;15.63;2.17;;;10.00;99.90;;;;;;7284525;19;20187;-79
2023/03/25 03:59:38;;;;;;;18.67;2.23;;;9.90;99.90;;;;;;7283805;19;20203;-79
2023/03/25 04:02:13;;;;;;;14.30;2.30;;;9.80;99.90;;;;;;7284057;19;20219;-80
2023/03/25 04:04:41;;;;;;;14.33;2.03;;;9.70;99.90;;;;;;7283453;19;20274;-79
2023/03/25 04:07:21;;;;;;;14.10;1.80;;;9.70;99.90;;;;;;7281948;19;20233;-79
2023/03/25 04:09:54;;;;;;;14.73;1.80;;;9.60;99.90;;;;;;7284171;19;20191;-79
2023/03/25 04:12:24;;;;;;;12.60;1.90;;;9.70;99.90;;;;;;7261400;19;20192;-80
2023/03/25 04:14:51;;;;;;;11.23;1.80;;;9.60;99.90;;;;;;7282013;19;20194;-80
2023/03/25 04:17:16;;;;;;;11.13;1.73;;;9.60;99.90;;;;;;7306042;19;20654;-79
2023/03/25 04:19:47;;;;;;;14.73;2.10;;;9.70;99.90;;;;;;7287086;19;20193;-81
2023/03/25 04:22:17;;;;;;;15.97;1.90;;;9.70;99.90;;;;;;7287876;19;20622;-80
2023/03/25 04:24:43;;;;;;;13.13;1.53;;;9.70;99.90;;;;;;7290059;19;20206;-81
2023/03/25 04:27:12;;;;;;;13.17;2.00;;;9.70;99.90;;;;;;7287608;19;20334;-79
2023/03/25 04:29:42;;;;;;;13.30;1.77;;;9.70;99.90;;;;;;7291176;19;20192;-80
2023/03/25 04:32:11;;;;;;;15.00;2.20;;;9.60;99.90;;;;;;7289562;19;20547;-79
2023/03/25 04:34:37;;;;;;;16.50;2.00;;;9.60;99.90;;;;;;7289298;19;20552;-79
2023/03/25 04:37:03;;;;;;;13.50;2.40;;;9.50;99.90;;;;;;7289614;19;20199;-80
2023/03/25 04:39:31;;;;;;;11.67;1.63;;;9.50;99.90;;;;;;7288858;19;20557;-79
2023/03/25 04:42:01;;;;;;;12.43;1.67;;;9.50;99.90;;;;;;7289609;19;20207;-79
2023/03/25 04:44:32;;;;;;;13.17;1.60;;;9.50;99.90;;;;;;7288695;19;20190;-79
2023/03/25 04:47:01;;;;;;;11.33;1.70;;;9.50;99.90;;;;;;7289626;19;20209;-79
2023/03/25 04:49:26;;;;;;;8.53;1.53;;;9.50;99.90;;;;;;7290037;19;20190;-79
2023/03/25 04:51:53;;;;;;;13.13;2.00;;;9.60;99.90;;;;;;7289796;19;20195;-78
2023/03/25 04:54:20;;;;;;;15.57;2.27;;;9.60;99.90;;;;;;7286358;19;20216;-78
2023/03/25 04:56:48;;;;;;;12.67;1.60;;;9.50;99.90;;;;;;7310905;19;20583;-79
2023/03/25 04:59:14;;;;;;;11.77;1.97;;;9.50;99.90;;;;;;7288527;19;20185;-79
2023/03/25 05:01:41;;;;;;;10.27;1.57;;;9.50;99.90;;;;;;7289420;19;20189;-80
2023/03/25 05:04:11;;;;;;;12.67;1.60;;;9.50;99.90;;;;;;7287999;19;20194;-79
2023/03/25 05:06:42;;;;;;;11.57;1.80;;;9.50;99.90;;;;;;7288580;19;20203;-80
2023/03/25 05:09:14;;;;;;;7.13;1.60;;;9.50;99.90;;;;;;7289406;19;20260;-79
2023/03/25 05:11:41;;;;;;;14.13;1.77;;;9.50;99.90;;;;;;7288340;19;20368;-81
2023/03/25 05:14:11;;;;;;;14.13;2.13;;;9.50;99.90;;;;;;7288012;19;20195;-79
2023/03/25 05:16:37;;;;;;;13.07;1.70;;;9.50;99.90;;;;;;7285702;19;20244;-80
2023/03/25 05:19:05;;;;;;;11.93;2.20;;;9.50;99.90;;;;;;7290314;19;20195;-80
2023/03/25 05:21:36;;;;;;;13.23;2.37;;;9.40;99.90;;;;;;7286615;19;20272;-82
2023/03/25 05:24:03;;;;;;;15.67;2.10;;;9.40;99.90;;;;;;7289650;19;20195;-80
2023/03/25 05:26:33;;;;;;;10.70;1.63;;;9.40;99.90;;;;;;7288152;19;20187;-80
2023/03/25 05:29:01;;;;;;;11.73;2.00;;;9.50;99.90;;;;;;7288784;19;20202;-80
2023/03/25 05:31:27;;;;;;;12.57;1.97;;;9.60;99.90;;;;;;7289352;19;20199;-76
2023/03/25 05:33:53;;;;;;;11.27;2.53;;;9.60;99.90;;;;;;7281598;19;20199;-76
2023/03/25 05:36:20;;;;;;;16.93;2.27;;;9.70;99.90;;;;;;7284800;19;20208;-75
2023/03/25 05:38:47;;;;;;;13.03;1.93;;;9.80;99.90;;;;;;7307297;19;20214;-76
2023/03/25 05:41:15;;;;;;;14.77;2.10;;;9.80;99.90;;;;;;7284989;19;20195;-73
2023/03/25 05:43:46;;;;;;;13.20;2.40;;;9.80;99.90;;;;;;7284720;19;20194;-76
2023/03/25 05:46:16;;;;;;;13.23;2.10;;;9.80;99.90;;;;;;7284142;19;20222;-76
2023/03/25 05:48:43;;;;;;;17.47;2.63;;;9.70;99.90;;;;;;7284316;19;20262;-76
2023/03/25 05:51:15;;;;;;;14.13;2.17;;;9.70;99.90;;;;;;7284682;19;20188;-76
2023/03/25 05:53:42;;;;;;;12.53;2.13;;;9.60;99.90;;;;;;7284387;19;20200;-76
2023/03/25 05:56:10;;;;;;;11.20;2.03;;;9.60;99.90;;;;;;7285072;19;20180;-76
2023/03/25 05:58:35;;;;;;;15.90;2.03;;;9.60;99.90;;;;;;7284993;19;20189;-76
2023/03/25 06:01:03;;;;;;;13.60;1.90;;;9.60;99.90;;;;;;7284293;19;20229;-76
2023/03/25 06:03:29;;;;;;;12.83;2.10;;;9.60;99.90;;;;;;7284525;19;20210;-76
2023/03/25 06:05:55;;;;;;;11.67;2.00;;;9.70;99.90;;;;;;7284127;19;20187;-76
2023/03/25 06:08:25;;;;;;;15.97;2.00;;;9.60;99.90;;;;;;7284473;19;20917;-76
2023/03/25 06:10:57;;;;;;;13.13;1.97;;;9.70;99.90;;;;;;7283983;19;20230;-76
2023/03/25 06:13:23;;;;;;;9.40;1.73;;;9.70;99.90;;;;;;7285955;19;20324;-75
2023/03/25 06:15:54;;;;;;;12.73;1.97;;;9.70;99.90;;;;;;7287441;19;20191;-75
2023/03/25 06:18:23;;;;;;;10.70;2.00;;;9.80;99.90;;;;;;7283790;19;20187;-74
2023/03/25 06:20:50;;;;;;;13.63;2.03;;;9.80;99.90;;;;;;7283946;19;20187;-75
2023/03/25 06:23:16;;;;;;;16.67;1.90;;;9.80;99.90;;;;;;7306973;19;20651;-75
2023/03/25 06:25:42;;;;;;;15.07;1.80;;;10.10;99.90;;;;;;7284320;19;20195;-74
2023/03/25 06:28:08;;;;;;;13.17;1.93;;;10.40;99.90;;;;;;7283674;19;20192;-73
2023/03/25 06:30:33;;;;;;;7.53;1.40;;;10.50;99.90;;;;;;7284886;19;20202;-72
2023/03/25 06:33:01;;;;;;;11.80;1.70;;;10.50;99.90;;;;;;7283045;19;20263;-73
2023/03/25 06:35:27;;;;;;;12.57;1.87;;;10.60;99.90;;;;;;7283093;19;20196;-73
2023/03/25 06:37:54;;;;;;;9.50;1.57;;;10.80;99.90;;;;;;7283901;19;20306;-74
2023/03/25 06:40:27;;;;;;;12.63;1.77;;;10.90;99.90;;;;;;7285350;19;20183;-74
2023/03/25 06:42:53;;;;;;;14.73;1.77;;;10.90;99.90;;;;;;7282702;19;20326;-74
2023/03/25 06:45:37;;;;;;;12.57;1.80;;;10.90;99.90;;;;;;7282402;19;20235;-74
2023/03/25 06:48:21;;;;;;;13.83;2.37;;;10.90;99.90;;;;;;7261128;19;20188;-73
2023/03/25 06:50:46;;;;;;;12.57;1.80;;;11.00;99.90;;;;;;7305396;19;20627;-74
2023/03/25 06:53:12;;;;;;;13.53;2.03;;;11.10;99.90;;;;;;7283721;19;20184;-74
2023/03/25 06:55:38;;;;;;;10.20;1.47;;;11.30;99.90;;;;;;7283555;19;20645;-74
2023/03/25 06:58:04;;;;;;;13.33;1.90;;;11.40;99.90;;;;;;7282373;19;20197;-74
2023/03/25 07:00:30;;;;;;;11.97;1.93;;;12.00;99.90;;;;;;7282448;19;20189;-74
2023/03/25 07:02:57;;;;;;;12.47;1.77;;;12.30;99.90;;;;;;7283802;19;20552;-74
2023/03/25 07:05:24;;;;;;;13.00;2.00;;;12.30;99.90;;;;;;7283395;19;20197;-75
2023/03/25 07:07:49;;;;;;;13.10;1.87;;;12.20;99.90;;;;;;7281026;19;20201;-74
2023/03/25 07:10:15;;;;;;;12.80;2.00;;;12.20;99.90;;;;;;7304688;19;20213;-74
2023/03/25 07:12:41;;;;;;;14.10;2.03;;;11.80;99.90;;;;;;7283144;19;20210;-74
2023/03/25 07:15:07;;;;;;;14.70;2.00;;;11.70;99.90;;;;;;7282151;19;20197;-74
2023/03/25 07:17:35;;;;;;;13.77;2.10;;;11.50;99.90;;;;;;7283272;19;20659;-74
2023/03/25 07:20:01;;;;;;;15.03;2.23;;;11.30;99.90;;;;;;7282768;19;21043;-73
2023/03/25 07:22:27;;;;;;;17.90;2.70;;;11.50;99.90;;;;;;7281178;19;20653;-73
2023/03/25 07:24:53;;;;;;;18.83;2.17;;;11.70;99.90;;;;;;7282026;19;20192;-73
2023/03/25 07:27:19;;;;;;;11.67;2.03;;;11.70;99.90;;;;;;7287608;19;20306;-74
2023/03/25 07:29:54;;;;;;;14.90;2.43;;;11.70;99.90;;;;;;7282508;19;20184;-75
2023/03/25 07:32:20;;;;;;;19.37;2.20;;;11.60;99.90;;;;;;7281254;19;20689;-74
2023/03/25 07:34:46;;;;;;;19.17;2.80;;;11.50;99.90;;;;;;7304797;19;20188;-74
2023/03/25 07:37:11;;;;;;;16.33;2.80;;;11.50;99.90;;;;;;7280584;19;20247;-74
2023/03/25 07:39:37;;;;;;;17.43;2.43;;;11.50;99.90;;;;;;7282016;19;20204;-73
2023/03/25 07:42:05;;;;;;;15.47;2.40;;;11.50;99.90;;;;;;7282781;19;20227;-74
2023/03/25 07:44:49;;;;;;;20.57;3.10;;;11.60;99.90;;;;;;7261603;19;20226;-73
2023/03/25 07:47:15;;;;;;;20.90;2.30;;;11.90;99.90;;;;;;7303311;19;20193;-74
2023/03/25 07:49:41;;;;;;;18.20;2.77;;;11.90;99.90;;;;;;7281819;19;20192;-74
2023/03/25 07:52:07;;;;;;;18.27;2.33;;;12.00;99.90;;;;;;7281833;19;20189;-76
2023/03/25 07:54:33;;;;;;;20.63;2.37;;;12.00;99.90;;;;;;7285110;19;20193;-74
2023/03/25 07:56:59;;;;;;;18.37;2.50;;;12.00;99.90;;;;;;7287892;19;20551;-73
2023/03/25 07:59:25;;;;;;;20.53;3.13;;;11.70;99.90;;;;;;7290096;19;20657;-73
2023/03/25 08:01:50;;;;;;;23.73;2.83;;;11.40;99.90;;;;;;7290851;19;20181;-73
2023/03/25 08:04:16;;;;;;;20.63;2.50;;;11.20;99.90;;;;;;7312623;19;20222;-74
2023/03/25 08:06:41;;;;;;;20.47;3.03;;;11.10;99.90;;;;;;7289154;19;20556;-74
2023/03/25 08:09:07;;;;;;;21.40;2.97;;;11.20;99.90;;;;;;7289757;19;20200;-74
2023/03/25 08:11:33;;;;;;;17.93;2.43;;;11.30;99.90;;;;;;7290493;19;20252;-74
2023/03/25 08:13:59;;;;;;;19.97;2.80;;;11.40;99.90;;;;;;7288984;19;20533;-74
2023/03/25 08:16:24;;;;;;;18.30;2.47;;;11.40;99.90;;;;;;7287062;19;20185;-74
2023/03/25 08:18:51;;;;;;;25.07;3.27;;;11.40;99.90;;;;;;7285924;19;20643;-74
2023/03/25 08:21:24;;;;;;;17.47;2.50;;;11.50;99.90;;;;;;7310100;19;20529;-74
2023/03/25 08:23:53;;;;;;;21.17;2.70;;;11.70;99.90;;;;;;7265183;19;20194;-74
2023/03/25 08:26:19;;;;;;;21.37;3.40;;;11.80;99.90;;;;;;7292129;19;20185;-75
2023/03/25 08:28:46;;;;;;;18.63;2.67;;;11.80;99.90;;;;;;7310306;19;20671;-75
2023/03/25 08:31:12;;;;;;;22.10;3.00;;;11.70;99.90;;;;;;7287422;19;20795;-73
2023/03/25 08:33:39;;;;;;;23.23;2.90;;;11.90;99.90;;;;;;7284675;19;20650;-75
2023/03/25 08:36:08;;;;;;;23.53;2.87;;;12.10;99.90;;;;;;7287410;19;20196;-74
2023/03/25 08:38:34;;;;;;;15.77;2.30;;;12.10;99.90;;;;;;7285824;19;20184;-74
2023/03/25 08:41:00;;;;;;;23.00;2.80;;;11.90;99.90;;;;;;7282584;19;20189;-74
2023/03/25 08:43:26;;;;;;;23.13;2.77;;;11.80;99.90;;;;;;7288062;19;20192;-74
2023/03/25 08:45:52;;;;;;;18.17;2.70;;;11.80;99.90;;;;;;7285231;19;20663;-74
2023/03/25 08:48:18;;;;;;;25.53;3.53;;;11.70;99.90;;;;;;7303763;19;20208;-74
2023/03/25 08:50:43;;;;;;;19.00;2.70;;;11.60;99.90;;;;;;7299292;19;20181;-74
2023/03/25 08:53:09;;;;;;;18.57;2.50;;;11.70;99.90;;;;;;7285731;19;20198;-74
2023/03/25 08:55:36;;;;;;;25.23;3.07;;;11.80;99.90;;;;;;7287637;19;20676;-74
2023/03/25 08:58:03;;;;;;;24.93;2.83;;;11.90;99.90;;;;;;7286801;19;20219;-74
2023/03/25 09:00:30;;;;;;;22.57;3.00;;;12.00;99.90;;;;;;7284940;19;20189;-74
2023/03/25 09:02:57;;;;;;;20.30;2.90;;;12.00;99.90;;;;;;7287396;19;20196;-74
2023/03/25 09:05:24;;;;;;;16.10;2.57;;;11.90;99.90;;;;;;7284899;19;20265;-74
2023/03/25 09:07:49;;;;;;;19.83;2.83;;;12.00;99.90;;;;;;7284360;19;20198;-74
2023/03/25 09:10:15;;;;;;;18.73;2.90;;;12.20;99.90;;;;;;7307629;19;20709;-75
2023/03/25 09:12:41;;;;;;;14.90;2.70;;;12.40;99.90;;;;;;7283696;19;20200;-74
2023/03/25 09:15:08;;;;;;;18.10;2.80;;;12.60;99.90;;;;;;7284010;19;20547;-74
2023/03/25 09:17:34;;;;;;;14.83;2.87;;;12.60;99.90;;;;;;7285867;19;20189;-74
2023/03/25 09:20:00;;;;;;;22.57;2.97;;;12.70;99.90;;;;;;7285259;19;20198;-74
2023/03/25 09:22:25;;;;;;;20.30;3.33;;;12.70;99.90;;;;;;7287168;19;20227;-83
2023/03/25 09:24:51;;;;;;;20.57;3.03;;;12.80;99.90;;;;;;7286491;19;20278;-74
2023/03/25 09:27:17;;;;;;;21.07;3.27;;;12.90;99.90;;;;;;7305998;19;20724;-75
2023/03/25 09:29:42;;;;;;;20.17;3.23;;;12.80;99.90;;;;;;7284963;19;20197;-74
2023/03/25 09:32:08;;;;;;;24.53;4.00;;;12.90;99.90;;;;;;7285973;19;20209;-74
2023/03/25 09:34:34;;;;;;;21.73;2.73;;;13.00;99.90;;;;;;7286352;19;20243;-74
2023/03/25 09:37:02;;;;;;;17.33;2.90;;;13.20;99.90;;;;;;7285968;19;20213;-74
2023/03/25 09:39:27;;;;;;;19.27;3.27;;;13.10;99.90;;;;;;7285611;19;20562;-75
2023/03/25 09:42:11;;;;;;;21.30;3.10;;;12.90;99.90;;;;;;7283589;19;20226;-74
2023/03/25 09:44:55;;;;;;;24.27;2.77;;;12.70;99.90;;;;;;7285670;19;20206;-73
2023/03/25 09:47:23;;;;;;;19.00;3.23;;;12.50;99.90;;;;;;7262257;19;20196;-73
2023/03/25 09:49:54;;;;;;;26.13;3.23;;;12.50;99.90;;;;;;7296440;19;20194;-74
2023/03/25 09:52:25;;;;;;;18.93;3.03;;;12.60;99.90;;;;;;7284491;19;20217;-73
2023/03/25 09:54:56;;;;;;;23.10;3.70;;;13.10;99.90;;;;;;7284590;19;20195;-73
2023/03/25 09:57:27;;;;;;;16.30;3.43;;;13.50;99.90;;;;;;7285453;19;20206;-73
2023/03/25 09:59:55;;;;;;;21.17;3.07;;;14.00;99.90;;;;;;7284805;19;20191;-73
2023/03/25 10:02:41;;;;;;;21.40;3.47;;;14.20;99.90;;;;;;7282601;19;20196;-74
2023/03/25 10:05:10;;;;;;;19.27;2.80;;;14.40;99.90;;;;;;7283454;19;20259;-73
2023/03/25 10:08:04;;;;;;;22.80;3.10;;;14.60;99.90;;;;;;7283700;19;20264;-74
2023/03/25 10:10:41;;;;;;;18.10;3.13;;;14.80;99.90;;;;;;7179257;19;2006187;-74
2023/03/25 10:13:22;;;;;;;21.77;3.07;;;15.10;99.90;;;;;;7284606;19;20197;-74
2023/03/25 10:15:53;;;;;;;25.30;3.47;;;14.80;99.90;;;;;;7280286;19;20188;-74
2023/03/25 10:18:27;;;;;;;18.63;2.83;;;14.80;99.90;;;;;;7294053;19;20227;-74
2023/03/25 10:20:59;;;;;;;18.23;2.77;;;14.80;99.90;;;;;;7282651;19;20559;-74
2023/03/25 10:23:36;;;;;;;22.00;2.90;;;15.20;99.90;;;;;;7283323;19;20248;-74
2023/03/25 10:26:10;;;;;;;19.57;4.27;;;15.20;99.90;;;;;;7284182;19;20196;-74
2023/03/25 10:28:42;;;;;;;19.03;3.40;;;14.90;99.90;;;;;;7283998;19;20546;-74
2023/03/25 10:31:15;;;;;;;21.23;3.10;;;14.70;99.90;;;;;;7285064;19;20199;-74
2023/03/25 10:33:50;;;;;;;25.23;3.13;;;14.80;99.90;;;;;;7284135;19;20265;-74
2023/03/25 10:36:18;;;;;;;26.23;4.00;;;14.30;99.90;;;;;;7283905;19;20185;-73
2023/03/25 10:38:46;;;;;;;22.73;3.13;;;14.10;99.90;;;;;;7284435;19;20184;-73
2023/03/25 10:41:36;;;;;;;17.30;2.73;;;13.90;99.90;;;;;;7282583;19;20205;-73
2023/03/25 10:44:08;;;;;;;19.37;2.13;;;13.50;99.90;;;;;;7182283;19;2004603;-74
2023/03/25 10:46:48;;;;;;;20.17;2.73;;;13.30;99.90;;;;;;7282703;19;20207;-73
2023/03/25 10:49:20;;;;;;;21.03;2.60;;;13.00;99.90;;;;;;7284460;19;20183;-74
2023/03/25 10:51:48;;;;;;;15.97;2.30;;;13.80;99.90;;;;;;7284895;19;20198;-73
2023/03/25 10:54:15;;;;;;;20.63;2.93;;;14.20;99.90;;;;;;7282733;19;20762;-74
2023/03/25 10:56:45;;;;;;;17.10;2.73;;;14.60;99.90;;;;;;7283480;19;20318;-73
2023/03/25 10:59:26;;;;;;;14.60;2.37;;;15.20;99.90;;;;;;7282958;19;20189;-73
2023/03/25 11:01:57;;;;;;;14.87;2.53;;;15.90;99.90;;;;;;7181180;19;2004822;-73
2023/03/25 11:04:32;;;;;;;19.43;3.13;;;15.90;99.90;;;;;;7282698;19;20219;-73
2023/03/25 11:06:59;;;;;;;17.43;3.10;;;16.00;99.90;;;;;;7283627;19;20187;-74
2023/03/25 11:09:29;;;;;;;13.37;2.67;;;16.70;99.90;;;;;;7283311;19;20189;-74
2023/03/25 11:11:58;;;;;;;18.47;2.80;;;16.90;99.90;;;;;;7283098;19;20647;-74
2023/03/25 11:14:26;;;;;;;17.07;2.70;;;16.90;99.90;;;;;;7282080;19;20200;-74
2023/03/25 11:17:04;;;;;;;12.57;2.40;;;17.50;99.90;;;;;;7282263;19;20271;-74
2023/03/25 11:19:38;;;;;;;14.83;2.20;;;17.50;99.90;;;;;;7282662;19;20187;-74
2023/03/25 11:22:12;;;;;;;19.43;2.97;;;17.10;99.90;;;;;;7282532;19;20686;-73
2023/03/25 11:24:44;;;;;;;17.53;2.60;;;18.00;99.90;;;;;;7281076;19;20201;-75
2023/03/25 11:27:18;;;;;;;15.97;2.87;;;19.40;99.90;;;;;;7280893;19;20324;-74
2023/03/25 11:30:04;;;;;;;17.20;3.27;;;19.90;99.90;;;;;;7280106;19;20187;-74
2023/03/25 11:32:37;;;;;;;12.97;2.60;;;20.50;99.90;;;;;;7175720;19;2006137;-74
2023/03/25 11:35:15;;;;;;;11.80;2.10;;;18.60;99.90;;;;;;7282107;19;20527;-74
2023/03/25 11:37:47;;;;;;;16.30;2.83;;;17.30;99.90;;;;;;7282111;19;20187;-75
2023/03/25 11:40:17;;;;;;;12.30;2.17;;;16.20;99.90;;;;;;7281725;19;20188;-74
2023/03/25 11:42:48;;;;;;;15.20;2.07;;;15.40;99.90;;;;;;7281248;19;20196;-74
2023/03/25 11:45:33;;;;;;;16.50;2.90;;;15.30;99.90;;;;;;7280803;19;20217;-75
2023/03/25 11:48:08;;;;;;;18.80;2.30;;;15.40;99.90;;;;;;7179596;19;2004754;-74
2023/03/25 11:50:34;;;;;;;18.40;2.37;;;16.10;99.90;;;;;;7281911;19;20190;-75
2023/03/25 11:53:02;;;;;;;14.40;2.50;;;17.00;99.90;;;;;;7281186;19;20194;-75
2023/03/25 11:55:43;;;;;;;15.53;2.60;;;16.50;99.90;;;;;;7279971;19;20182;-74
2023/03/25 11:58:17;;;;;;;17.20;2.40;;;15.80;99.90;;;;;;7280368;19;20176;-74
2023/03/25 12:00:48;;;;;;;14.13;2.37;;;15.50;99.90;;;;;;7280194;19;20256;-74
2023/03/25 12:03:20;;;;;;;15.20;2.50;;;15.30;99.90;;;;;;7280769;19;20181;-74
2023/03/25 12:06:10;;;;;;;18.43;2.63;;;14.80;99.90;;;;;;7281315;19;20381;-74
2023/03/25 12:08:51;;;;;;;13.33;2.10;;;14.40;99.90;;;;;;7178809;19;2005011;-72
2023/03/25 12:11:29;;;;;;;12.50;1.97;;;14.30;99.90;;;;;;7281861;19;20188;-74
2023/03/25 12:14:26;;;;;;;16.03;2.63;;;14.30;99.90;;;;;;7177930;19;2006104;-74
2023/03/25 12:17:37;;;;;;;13.40;2.10;;;14.30;99.90;;;;;;7257564;19;20211;-74
2023/03/25 12:20:19;;;;;;;13.40;2.23;;;14.90;99.90;;;;;;7177770;19;2004323;-78
2023/03/25 12:23:02;;;;;;;13.83;2.50;;;15.50;99.90;;;;;;7281165;19;20189;-73
2023/03/25 12:25:36;;;;;;;14.43;2.43;;;16.00;99.90;;;;;;7177607;19;2004898;-74
2023/03/25 12:28:22;;;;;;;16.73;3.07;;;15.80;99.90;;;;;;7279033;19;20193;-74
2023/03/25 12:31:12;;;;;;;15.37;2.93;;;16.00;99.90;;;;;;7280355;19;20208;-75
2023/03/25 12:33:47;;;;;;;14.30;2.40;;;16.30;99.90;;;;;;7178997;19;2004732;-75
2023/03/25 12:36:32;;;;;;;13.33;2.27;;;17.10;99.90;;;;;;7281378;19;20203;-74
2023/03/25 12:39:18;;;;;;;15.20;2.00;;;17.90;99.90;;;;;;7177385;19;2004680;-74
2023/03/25 12:42:02;;;;;;;15.63;2.47;;;17.90;99.90;;;;;;7280546;19;20199;-73
2023/03/25 12:45:12;;;;;;;14.57;2.37;;;18.30;99.90;;;;;;7185079;19;2004481;-74
2023/03/25 12:48:02;;;;;;;17.47;2.87;;;18.50;99.90;;;;;;7182602;19;2004868;-74
2023/03/25 12:50:59;;;;;;;17.67;2.63;;;18.10;99.90;;;;;;7180687;19;2004601;-72
2023/03/25 12:53:34;;;;;;;14.33;2.27;;;17.60;99.90;;;;;;7181651;19;2004562;-73
2023/03/25 12:56:05;;;;;;;13.57;2.13;;;17.60;99.90;;;;;;7284888;19;20192;-72
2023/03/25 12:58:55;;;;;;;15.50;2.93;;;16.40;99.90;;;;;;7284679;19;20211;-73
2023/03/25 13:01:39;;;;;;;20.63;3.00;;;16.70;99.90;;;;;;7262919;19;20184;-74